Time;durP1;ratioP1;P1;durP2;ratioP2;P2;SDS_P1;SDS_P2;PMS_P1;PMS_P2;Temp;Humidity;BMP_temperature;BMP_pressure;BME280_temperature;BME280_humidity;BME280_pressure;Samples;Min_cycle;Max_cycle;Signal;HPM_P1;HPM_P2
2022/05/03 00:00:24;;;;;;;0.88;0.63;;;20.00;48.30;;;;;;5078659;28;43415;-59
2022/05/03 00:02:52;;;;;;;0.50;0.50;;;20.00;48.30;;;;;;5075601;28;43779;-60
2022/05/03 00:05:29;;;;;;;0.75;0.60;;;20.00;48.30;;;;;;5066738;28;44818;-60
2022/05/03 00:08:23;;;;;;;0.52;0.52;;;20.00;48.30;;;;;;5076281;28;43441;-59
2022/05/03 00:11:03;;;;;;;0.65;0.65;;;20.00;48.30;;;;;;5071550;28;43476;-60
2022/05/03 00:13:53;;;;;;;0.68;0.68;;;19.90;48.30;;;;;;5062573;28;44669;-59
2022/05/03 00:16:22;;;;;;;0.70;0.70;;;19.90;48.30;;;;;;5079865;28;43564;-60
2022/05/03 00:18:50;;;;;;;0.50;0.50;;;19.90;48.30;;;;;;5081349;27;43394;-59
2022/05/03 00:21:17;;;;;;;0.63;0.63;;;19.90;48.30;;;;;;5073259;28;43446;-59
2022/05/03 00:23:46;;;;;;;1.13;0.65;;;19.90;48.30;;;;;;5068727;28;43787;-59
2022/05/03 00:26:14;;;;;;;0.73;0.60;;;19.90;48.30;;;;;;5080544;28;43819;-60
2022/05/03 00:28:43;;;;;;;0.70;0.70;;;19.80;48.30;;;;;;5080590;28;43429;-59
2022/05/03 00:31:10;;;;;;;0.60;0.60;;;19.80;48.30;;;;;;5071139;28;43481;-60
2022/05/03 00:33:39;;;;;;;0.63;0.63;;;19.80;48.30;;;;;;5068547;28;43811;-59
2022/05/03 00:36:07;;;;;;;0.50;0.50;;;19.80;48.40;;;;;;5078462;28;43400;-60
2022/05/03 00:38:35;;;;;;;0.70;0.70;;;19.80;48.30;;;;;;5088833;27;43488;-60
2022/05/03 00:41:04;;;;;;;0.52;0.52;;;19.80;48.30;;;;;;5069670;28;43457;-60
2022/05/03 00:43:58;;;;;;;0.63;0.60;;;19.80;48.40;;;;;;5080079;28;43796;-59
2022/05/03 00:46:30;;;;;;;0.70;0.70;;;19.80;48.30;;;;;;5065105;28;43462;-60
2022/05/03 00:49:28;;;;;;;0.57;0.57;;;19.80;48.40;;;;;;5067617;28;43480;-59
2022/05/03 00:52:09;;;;;;;0.60;0.60;;;19.70;48.40;;;;;;5068701;28;43564;-60
2022/05/03 00:55:11;;;;;;;1.10;0.65;;;19.70;48.40;;;;;;5082136;28;43916;-60
2022/05/03 00:57:50;;;;;;;1.48;0.70;;;19.70;48.40;;;;;;5064867;27;43508;-60
2022/05/03 01:00:20;;;;;;;0.50;0.50;;;19.70;48.40;;;;;;5073635;28;43992;-59
2022/05/03 01:02:48;;;;;;;0.57;0.57;;;19.60;48.30;;;;;;5080982;28;43420;-60
2022/05/03 01:05:25;;;;;;;0.73;0.50;;;19.70;48.40;;;;;;5076259;28;44068;-59
2022/05/03 01:08:18;;;;;;;0.40;0.40;;;19.60;48.40;;;;;;5064652;28;43472;-59
2022/05/03 01:11:15;;;;;;;0.60;0.60;;;19.60;48.40;;;;;;5057184;28;43699;-59
2022/05/03 01:14:15;;;;;;;0.50;0.50;;;19.60;48.50;;;;;;5079502;28;43491;-60
2022/05/03 01:17:09;;;;;;;0.68;0.68;;;19.60;48.50;;;;;;5050033;28;43793;-60
2022/05/03 01:20:03;;;;;;;0.60;0.60;;;19.60;49.10;;;;;;5053411;28;43838;-59
2022/05/03 01:23:00;;;;;;;0.65;0.65;;;19.60;48.50;;;;;;5071779;28;43577;-60
2022/05/03 01:26:22;;;;;;;1.02;0.55;;;19.60;48.50;;;;;;5059533;28;43586;-59
2022/05/03 01:29:18;;;;;;;1.42;0.80;;;19.50;48.40;;;;;;5041283;28;44077;-59
2022/05/03 01:31:53;;;;;;;0.70;0.70;;;19.50;48.50;;;;;;5072658;28;43636;-60
2022/05/03 01:34:24;;;;;;;0.43;0.43;;;19.50;48.50;;;;;;5066881;28;43482;-60
2022/05/03 01:37:00;;;;;;;0.73;0.70;;;19.50;48.50;;;;;;5069658;28;43550;-60
2022/05/03 01:39:55;;;;;;;0.60;0.60;;;19.50;48.40;;;;;;5060203;28;44039;-60
2022/05/03 01:42:29;;;;;;;0.70;0.70;;;19.40;48.40;;;;;;5073262;27;44210;-59
2022/05/03 01:45:08;;;;;;;0.50;0.50;;;19.40;48.50;;;;;;5071269;27;43525;-60
2022/05/03 01:48:09;;;;;;;0.60;0.60;;;19.40;48.50;;;;;;5074350;28;43460;-59
2022/05/03 01:50:54;;;;;;;0.70;0.70;;;19.40;48.50;;;;;;5077331;28;44071;-59
2022/05/03 01:53:36;;;;;;;0.70;0.70;;;19.40;48.50;;;;;;5065880;28;43706;-59
2022/05/03 01:56:04;;;;;;;0.70;0.70;;;19.40;48.50;;;;;;5066547;28;43509;-59
2022/05/03 01:58:52;;;;;;;0.70;0.70;;;19.40;48.50;;;;;;5077569;28;43428;-60
2022/05/03 02:01:29;;;;;;;1.10;0.80;;;19.40;48.60;;;;;;5076011;28;44710;-60
2022/05/03 02:04:23;;;;;;;0.80;0.80;;;19.40;48.50;;;;;;5068098;28;44030;-60
2022/05/03 02:07:35;;;;;;;0.73;0.73;;;19.30;48.50;;;;;;5035614;28;43471;-59
2022/05/03 02:10:07;;;;;;;0.95;0.95;;;19.30;48.50;;;;;;5057928;27;43717;-60
2022/05/03 02:12:34;;;;;;;0.93;0.93;;;19.30;48.50;;;;;;5071472;27;44843;-60
2022/05/03 02:15:04;;;;;;;0.90;0.90;;;19.30;48.60;;;;;;5071041;28;43526;-60
2022/05/03 02:17:59;;;;;;;0.98;0.98;;;19.30;48.50;;;;;;5096288;27;43536;-60
2022/05/03 02:20:32;;;;;;;0.80;0.80;;;19.30;48.50;;;;;;5076584;28;43545;-60
2022/05/03 02:23:38;;;;;;;0.80;0.80;;;19.30;48.60;;;;;;5066934;28;44631;-59
2022/05/03 02:26:34;;;;;;;1.17;1.02;;;19.20;48.50;;;;;;5077249;28;43477;-60
2022/05/03 02:29:15;;;;;;;0.82;0.82;;;19.20;48.60;;;;;;5075769;27;43422;-60
2022/05/03 02:32:04;;;;;;;0.90;0.90;;;19.20;48.60;;;;;;5070533;28;43407;-60
2022/05/03 02:34:38;;;;;;;1.00;1.00;;;19.20;48.60;;;;;;5058717;28;44124;-60
2022/05/03 02:37:23;;;;;;;0.80;0.80;;;19.20;48.60;;;;;;5078699;28;43701;-59
2022/05/03 02:39:54;;;;;;;0.90;0.90;;;19.20;48.60;;;;;;5074259;27;44026;-60
2022/05/03 02:42:22;;;;;;;0.90;0.90;;;19.20;48.70;;;;;;5072078;28;43434;-60
2022/05/03 02:44:51;;;;;;;1.10;1.10;;;19.20;48.70;;;;;;5078888;28;43793;-60
2022/05/03 02:47:42;;;;;;;0.88;0.88;;;19.20;48.70;;;;;;5070542;28;43569;-60
2022/05/03 02:50:14;;;;;;;1.27;1.17;;;19.20;49.30;;;;;;5071591;28;43603;-59
2022/05/03 02:52:48;;;;;;;1.00;1.00;;;19.20;48.60;;;;;;5065426;28;43440;-59
2022/05/03 02:55:26;;;;;;;0.93;0.93;;;19.10;48.60;;;;;;5078929;28;43797;-59
2022/05/03 02:58:10;;;;;;;1.00;1.00;;;19.10;48.60;;;;;;5079485;28;43464;-59
2022/05/03 03:04:03;;;;;;;1.05;1.05;;;19.10;48.60;;;;;;5072545;28;43596;-59
2022/05/03 03:06:33;;;;;;;1.00;1.00;;;19.10;48.70;;;;;;5082495;27;44720;-59
2022/05/03 03:09:01;;;;;;;1.17;1.08;;;19.10;48.70;;;;;;5074892;28;43411;-59
2022/05/03 03:11:52;;;;;;;1.00;1.00;;;19.10;48.70;;;;;;5075937;27;43491;-60
2022/05/03 03:14:20;;;;;;;1.45;1.08;;;19.10;48.70;;;;;;5077403;28;43988;-60
2022/05/03 03:17:02;;;;;;;1.45;1.20;;;19.10;48.60;;;;;;5079752;28;43811;-60
2022/05/03 03:19:51;;;;;;;1.05;1.05;;;19.10;48.70;;;;;;5077320;28;43609;-60
2022/05/03 03:22:23;;;;;;;1.20;1.20;;;19.10;48.70;;;;;;5069673;28;43424;-59
2022/05/03 03:24:54;;;;;;;1.50;1.40;;;19.00;48.70;;;;;;5080950;28;43378;-59
2022/05/03 03:27:24;;;;;;;1.27;1.23;;;19.00;48.70;;;;;;5078729;27;45008;-59
2022/05/03 03:29:56;;;;;;;1.63;1.52;;;19.00;48.70;;;;;;5072560;28;43729;-60
2022/05/03 03:32:25;;;;;;;1.30;1.20;;;19.00;48.70;;;;;;5080114;28;43430;-60
2022/05/03 03:34:58;;;;;;;1.67;1.58;;;19.00;48.70;;;;;;5077961;27;43495;-59
2022/05/03 03:37:28;;;;;;;1.60;1.50;;;19.00;48.70;;;;;;5065079;28;43812;-59
2022/05/03 03:39:56;;;;;;;1.50;1.40;;;19.00;48.70;;;;;;5069174;28;43837;-59
2022/05/03 03:42:27;;;;;;;1.42;1.33;;;19.00;48.80;;;;;;5076476;28;43474;-59
2022/05/03 03:44:59;;;;;;;;;;;19.00;48.80;;;;;;5074036;27;43475;-60
2022/05/03 03:47:29;;;;;;;1.30;1.25;;;19.00;48.80;;;;;;5072233;28;43776;-59
2022/05/03 03:49:59;;;;;;;1.35;1.30;;;18.90;48.80;;;;;;5079414;28;44031;-59
2022/05/03 03:52:27;;;;;;;1.50;1.40;;;19.00;48.80;;;;;;5076436;27;43506;-60
2022/05/03 03:54:55;;;;;;;1.35;1.25;;;18.90;48.80;;;;;;5077894;28;44005;-60
2022/05/03 03:57:30;;;;;;;1.50;1.40;;;19.00;48.80;;;;;;5061732;28;43830;-60
2022/05/03 04:00:03;;;;;;;1.63;1.52;;;19.00;48.80;;;;;;5079230;28;43478;-60
2022/05/03 04:02:41;;;;;;;1.50;1.40;;;18.90;48.80;;;;;;5078875;28;44099;-59
2022/05/03 04:05:28;;;;;;;1.50;1.40;;;18.90;48.80;;;;;;5074858;27;43447;-59
2022/05/03 04:07:55;;;;;;;1.67;1.58;;;19.00;48.80;;;;;;5068339;28;44390;-60
2022/05/03 04:10:23;;;;;;;1.60;1.50;;;18.90;48.80;;;;;;5080533;27;43433;-60
2022/05/03 04:12:50;;;;;;;1.80;1.70;;;18.90;48.80;;;;;;5078575;28;43460;-60
2022/05/03 04:15:18;;;;;;;1.75;1.65;;;18.90;48.80;;;;;;5070892;28;43590;-59
2022/05/03 04:17:46;;;;;;;1.58;1.48;;;18.90;48.80;;;;;;5080886;28;44404;-59
2022/05/03 04:20:18;;;;;;;1.77;1.67;;;18.90;48.80;;;;;;5076790;28;43972;-60
2022/05/03 04:22:46;;;;;;;2.00;1.90;;;18.90;48.80;;;;;;5078655;28;43458;-59
2022/05/03 04:25:14;;;;;;;1.80;1.70;;;18.90;48.80;;;;;;5069949;28;43483;-60
2022/05/03 04:27:42;;;;;;;1.70;1.60;;;18.90;48.80;;;;;;5080305;28;44186;-59
2022/05/03 04:30:10;;;;;;;1.80;1.70;;;18.90;48.90;;;;;;5079836;28;43506;-60
2022/05/03 04:32:37;;;;;;;2.20;2.10;;;18.90;48.90;;;;;;5077202;28;43456;-60
2022/05/03 04:35:05;;;;;;;2.10;2.00;;;18.90;49.00;;;;;;5069043;28;43447;-60
2022/05/03 04:37:33;;;;;;;2.10;2.00;;;18.90;49.00;;;;;;5077502;28;44764;-60
2022/05/03 04:40:00;;;;;;;2.22;2.13;;;18.90;49.10;;;;;;5093408;27;43468;-60
2022/05/03 04:42:28;;;;;;;3.90;1.90;;;18.90;49.10;;;;;;5072239;28;43470;-59
2022/05/03 04:44:55;;;;;;;2.70;2.17;;;18.80;49.00;;;;;;5074557;28;43460;-59
2022/05/03 04:47:23;;;;;;;2.65;2.10;;;18.80;49.00;;;;;;5077419;28;43795;-60
2022/05/03 04:49:50;;;;;;;2.30;2.20;;;18.80;49.00;;;;;;5069131;27;43666;-59
2022/05/03 04:52:18;;;;;;;2.13;2.03;;;18.80;49.10;;;;;;5069992;28;43489;-59
2022/05/03 04:54:46;;;;;;;2.30;2.20;;;18.80;49.10;;;;;;5077180;28;44243;-59
2022/05/03 04:57:15;;;;;;;2.35;2.25;;;18.80;49.10;;;;;;5079616;28;43842;-59
2022/05/03 04:59:43;;;;;;;2.47;2.28;;;18.80;49.10;;;;;;5081750;27;43678;-60
2022/05/03 05:02:10;;;;;;;2.80;2.50;;;18.80;49.10;;;;;;5068699;27;44051;-60
2022/05/03 05:04:37;;;;;;;3.00;2.30;;;18.80;49.20;;;;;;5075329;28;43500;-60
2022/05/03 05:07:05;;;;;;;2.30;2.10;;;18.80;49.20;;;;;;5076646;28;44677;-60
2022/05/03 05:09:32;;;;;;;2.45;2.25;;;18.80;49.20;;;;;;5074270;27;43440;-59
2022/05/03 05:12:00;;;;;;;2.75;2.65;;;18.80;49.20;;;;;;5071079;28;43499;-60
2022/05/03 05:14:27;;;;;;;2.50;2.35;;;18.80;49.30;;;;;;5080732;28;43424;-59
2022/05/03 05:16:55;;;;;;;2.30;2.20;;;18.80;49.30;;;;;;5085625;27;45015;-60
2022/05/03 05:19:22;;;;;;;2.83;2.40;;;18.80;49.30;;;;;;5074787;27;43790;-60
2022/05/03 05:21:50;;;;;;;2.20;2.10;;;18.80;49.30;;;;;;5083218;28;43542;-60
2022/05/03 05:24:17;;;;;;;2.40;2.20;;;18.80;49.40;;;;;;5082260;27;43459;-61
2022/05/03 05:26:45;;;;;;;2.15;2.00;;;18.80;49.40;;;;;;5072525;28;46158;-59
2022/05/03 05:29:12;;;;;;;2.10;2.00;;;18.80;50.00;;;;;;5072693;27;43810;-60
2022/05/03 05:31:40;;;;;;;2.72;2.33;;;18.80;49.40;;;;;;5071828;28;43538;-60
2022/05/03 05:34:07;;;;;;;3.25;2.28;;;18.80;49.50;;;;;;5080768;28;43492;-59
2022/05/03 05:36:35;;;;;;;2.30;2.20;;;18.80;49.40;;;;;;5073876;28;44713;-59
2022/05/03 05:39:02;;;;;;;2.35;2.15;;;18.80;49.40;;;;;;5070904;27;43737;-60
2022/05/03 05:41:29;;;;;;;2.55;2.35;;;18.80;49.40;;;;;;5070116;28;43442;-60
2022/05/03 05:43:57;;;;;;;2.97;2.20;;;18.80;49.40;;;;;;5074509;28;43574;-59
2022/05/03 05:46:24;;;;;;;2.58;2.30;;;18.80;49.40;;;;;;5072779;28;44152;-59
2022/05/03 05:48:53;;;;;;;2.35;2.10;;;18.80;49.40;;;;;;5069816;28;43498;-59
2022/05/03 05:51:20;;;;;;;2.50;2.30;;;18.80;49.40;;;;;;5070792;28;43471;-60
2022/05/03 05:53:48;;;;;;;2.45;2.20;;;18.70;49.40;;;;;;5077658;28;43438;-60
2022/05/03 05:56:15;;;;;;;2.85;2.20;;;18.80;49.40;;;;;;5071696;28;44950;-60
2022/05/03 05:58:46;;;;;;;;;;;18.80;49.40;;;;;;5069121;28;43453;-60
2022/05/03 06:01:13;;;;;;;3.03;2.30;;;18.70;49.40;;;;;;5082590;27;43417;-60
2022/05/03 06:03:43;;;;;;;2.50;2.10;;;18.70;49.50;;;;;;5074929;28;43465;-58
2022/05/03 06:06:10;;;;;;;2.30;2.10;;;18.70;49.50;;;;;;5071302;28;44983;-62
2022/05/03 06:08:38;;;;;;;2.67;2.30;;;18.70;49.50;;;;;;5067272;27;43423;-60
2022/05/03 06:11:05;;;;;;;4.10;1.90;;;18.70;49.60;;;;;;5081048;28;43468;-59
2022/05/03 06:13:33;;;;;;;4.47;2.25;;;18.70;49.60;;;;;;5071964;27;43502;-58
2022/05/03 06:16:11;;;;;;;4.55;3.00;;;18.70;49.60;;;;;;5073243;28;44052;-60
2022/05/03 06:18:38;;;;;;;6.63;3.88;;;18.70;49.70;;;;;;5063674;28;43381;-59
2022/05/03 06:21:07;;;;;;;4.53;3.50;;;18.70;49.70;;;;;;5073013;28;43530;-61
2022/05/03 06:23:36;;;;;;;3.95;2.88;;;18.70;49.70;;;;;;5075789;28;43500;-60
2022/05/03 06:26:09;;;;;;;4.28;3.10;;;18.80;49.60;;;;;;5072749;27;44701;-60
2022/05/03 06:28:44;;;;;;;3.30;3.00;;;18.80;49.50;;;;;;5063507;28;43668;-60
2022/05/03 06:31:12;;;;;;;4.25;2.95;;;18.80;49.50;;;;;;5081388;28;43425;-60
2022/05/03 06:33:40;;;;;;;3.38;3.08;;;19.00;49.40;;;;;;5072204;28;43443;-59
2022/05/03 06:36:15;;;;;;;8.13;2.97;;;19.00;49.40;;;;;;5069483;28;45241;-62
2022/05/03 06:38:43;;;;;;;3.70;2.70;;;19.10;49.40;;;;;;5075317;28;43486;-60
2022/05/03 06:41:12;;;;;;;3.45;2.90;;;19.10;49.40;;;;;;5078472;28;43591;-60
2022/05/03 06:43:40;;;;;;;2.88;2.53;;;19.20;49.30;;;;;;5069561;28;43669;-60
2022/05/03 06:46:07;;;;;;;4.55;3.25;;;19.30;49.30;;;;;;5070257;28;44207;-59
2022/05/03 06:48:35;;;;;;;5.65;2.60;;;19.40;49.40;;;;;;5076646;28;44125;-60
2022/05/03 06:51:03;;;;;;;4.30;2.53;;;19.50;49.40;;;;;;5074462;28;43455;-60
2022/05/03 06:53:31;;;;;;;3.30;2.55;;;19.50;49.30;;;;;;5073386;28;43483;-61
2022/05/03 06:55:58;;;;;;;5.07;2.70;;;19.70;49.20;;;;;;5084369;28;43978;-58
2022/05/03 06:58:26;;;;;;;4.47;2.42;;;19.80;49.20;;;;;;5079296;28;43501;-60
2022/05/03 07:00:54;;;;;;;6.80;2.80;;;19.90;49.10;;;;;;5072938;28;43415;-59
2022/05/03 07:03:21;;;;;;;3.95;2.30;;;20.00;49.20;;;;;;5071948;28;43466;-59
2022/05/03 07:05:49;;;;;;;5.97;2.45;;;20.10;49.00;;;;;;5083965;28;43884;-61
2022/05/03 07:08:16;;;;;;;2.63;2.42;;;20.30;49.00;;;;;;5079171;28;43437;-59
2022/05/03 07:10:44;;;;;;;3.67;2.60;;;20.40;48.80;;;;;;5072055;28;43435;-60
2022/05/03 07:13:14;;;;;;;5.28;2.53;;;20.50;48.80;;;;;;5068597;28;44103;-59
2022/05/03 07:15:43;;;;;;;4.65;2.42;;;20.60;48.70;;;;;;5082976;28;45032;-59
2022/05/03 07:23:44;;;;;;;5.63;2.78;;;20.90;48.00;;;;;;5062339;28;44085;-59
2022/05/03 07:26:11;;;;;;;4.78;2.50;;;21.10;47.80;;;;;;5079364;28;43912;-59
2022/05/03 07:28:39;;;;;;;4.93;2.30;;;21.10;47.50;;;;;;5073555;28;43429;-60
2022/05/03 07:31:08;;;;;;;3.40;2.50;;;21.20;47.50;;;;;;5071207;28;43505;-59
2022/05/03 07:33:36;;;;;;;4.18;2.50;;;21.30;47.40;;;;;;5099041;27;43538;-60
2022/05/03 07:36:04;;;;;;;5.30;2.45;;;21.40;47.30;;;;;;5076583;28;44997;-60
2022/05/03 07:38:31;;;;;;;4.05;2.25;;;21.40;47.10;;;;;;5073696;28;43883;-60
2022/05/03 07:40:59;;;;;;;6.20;3.17;;;21.50;47.10;;;;;;5069259;27;44108;-59
2022/05/03 07:43:27;;;;;;;6.30;2.50;;;21.60;47.10;;;;;;5081355;28;43495;-60
2022/05/03 07:45:55;;;;;;;4.05;2.42;;;21.60;47.10;;;;;;5072604;28;43787;-59
2022/05/03 07:48:23;;;;;;;5.90;2.50;;;21.70;46.90;;;;;;5072762;27;43450;-60
2022/05/03 07:50:50;;;;;;;3.95;2.40;;;21.70;46.80;;;;;;5069316;27;43457;-60
2022/05/03 07:53:18;;;;;;;4.97;2.65;;;21.80;46.80;;;;;;5075474;27;43659;-59
2022/05/03 07:55:47;;;;;;;5.15;2.22;;;21.80;46.60;;;;;;5073702;28;43782;-59
2022/05/03 07:58:16;;;;;;;4.65;2.40;;;21.80;46.60;;;;;;5072462;28;43580;-59
2022/05/03 08:00:43;;;;;;;5.07;3.00;;;21.90;47.00;;;;;;5079869;28;43547;-60
2022/05/03 08:03:11;;;;;;;6.68;2.40;;;21.80;47.10;;;;;;5074291;28;43515;-60
2022/05/03 08:05:39;;;;;;;4.40;2.47;;;21.90;47.20;;;;;;5070910;28;43797;-60
2022/05/03 08:08:06;;;;;;;5.20;2.42;;;21.90;47.00;;;;;;5069074;28;43506;-59
2022/05/03 08:10:34;;;;;;;5.57;2.85;;;21.90;47.00;;;;;;5081255;28;43926;-60
2022/05/03 08:13:01;;;;;;;3.95;2.15;;;21.90;47.00;;;;;;5074121;28;43989;-60
2022/05/03 08:15:29;;;;;;;5.40;2.67;;;22.00;46.90;;;;;;5070027;28;45000;-60
2022/05/03 08:17:56;;;;;;;3.90;2.35;;;22.00;46.90;;;;;;5068261;28;44740;-60
2022/05/03 08:20:24;;;;;;;5.30;2.17;;;22.00;46.80;;;;;;5082647;28;43485;-60
2022/05/03 08:22:59;;;;;;;3.83;2.40;;;22.10;46.90;;;;;;5074996;28;43506;-60
2022/05/03 08:25:27;;;;;;;3.75;2.03;;;22.10;46.90;;;;;;5069172;28;44990;-61
2022/05/03 08:27:55;;;;;;;4.70;2.10;;;22.10;46.60;;;;;;5061349;28;43475;-60
2022/05/03 08:30:23;;;;;;;8.00;2.40;;;22.10;46.60;;;;;;5081896;28;43479;-61
2022/05/03 08:32:50;;;;;;;4.10;2.33;;;22.20;46.50;;;;;;5075677;28;43594;-59
2022/05/03 08:35:21;;;;;;;4.35;2.00;;;22.20;46.50;;;;;;5066907;28;44625;-59
2022/05/03 08:43:21;;;;;;;2.83;1.88;;;22.20;46.50;;;;;;5071208;28;43475;-59
2022/05/03 08:45:51;;;;;;;3.72;1.92;;;22.20;46.50;;;;;;5066516;28;44403;-60
2022/05/03 08:48:24;;;;;;;4.93;2.20;;;22.20;46.50;;;;;;5069617;28;43477;-59
2022/05/03 08:50:52;;;;;;;3.50;2.00;;;22.20;46.40;;;;;;5072650;28;43450;-60
2022/05/03 08:53:21;;;;;;;3.20;1.80;;;22.30;46.40;;;;;;5071825;28;43427;-59
2022/05/03 08:55:50;;;;;;;2.70;1.80;;;22.30;47.00;;;;;;5082743;27;43788;-59
2022/05/03 08:58:19;;;;;;;3.88;2.00;;;22.40;46.30;;;;;;5074939;28;43450;-60
2022/05/03 09:00:46;;;;;;;5.03;2.00;;;22.40;46.30;;;;;;5071533;28;44008;-60
2022/05/03 09:03:15;;;;;;;4.72;2.10;;;22.40;46.30;;;;;;5068103;28;43683;-60
2022/05/03 09:05:46;;;;;;;3.35;1.95;;;22.40;46.30;;;;;;5059263;28;44074;-60
2022/05/03 09:08:21;;;;;;;4.35;1.90;;;22.40;46.20;;;;;;5071502;28;43485;-60
2022/05/03 09:10:49;;;;;;;4.13;1.60;;;22.40;46.20;;;;;;5071173;28;43526;-60
2022/05/03 09:13:37;;;;;;;3.42;1.65;;;22.40;46.30;;;;;;5068376;28;43487;-59
2022/05/03 09:16:18;;;;;;;4.10;1.70;;;22.40;46.40;;;;;;5081532;28;45109;-61
2022/05/03 09:18:47;;;;;;;3.00;1.70;;;22.40;46.40;;;;;;5069937;28;43416;-60
2022/05/03 09:24:13;;;;;;;3.70;1.95;;;22.30;46.30;;;;;;5075753;28;43446;-58
2022/05/03 09:26:40;;;;;;;3.88;1.80;;;22.30;46.40;;;;;;5076371;28;43814;-59
2022/05/03 09:29:14;;;;;;;4.40;2.00;;;22.30;46.30;;;;;;5072247;28;43695;-62
2022/05/03 09:31:47;;;;;;;4.72;1.63;;;22.30;46.20;;;;;;5069265;28;43477;-62
2022/05/03 09:34:25;;;;;;;2.83;1.50;;;22.30;46.20;;;;;;5090866;27;43442;-62
2022/05/03 09:36:58;;;;;;;3.17;1.70;;;22.20;46.20;;;;;;5070957;28;43970;-59
2022/05/03 09:39:38;;;;;;;2.65;1.60;;;22.20;46.20;;;;;;5066990;28;44041;-60
2022/05/03 09:42:11;;;;;;;2.17;1.50;;;22.20;46.30;;;;;;5066422;28;43434;-60
2022/05/03 09:44:53;;;;;;;3.28;2.00;;;22.20;46.40;;;;;;5073154;28;43448;-59
2022/05/03 09:47:29;;;;;;;2.97;1.58;;;22.10;46.40;;;;;;5081477;27;44950;-59
2022/05/03 09:49:57;;;;;;;3.78;1.63;;;22.20;46.60;;;;;;5066467;28;43661;-59
2022/05/03 09:52:36;;;;;;;3.05;1.75;;;22.10;46.50;;;;;;5074280;28;43390;-59
2022/05/03 09:55:09;;;;;;;3.45;1.60;;;22.00;46.40;;;;;;5064772;28;43564;-60
2022/05/03 09:57:39;;;;;;;2.03;1.30;;;22.00;46.30;;;;;;5063964;28;43890;-59
2022/05/03 10:00:09;;;;;;;2.97;1.60;;;22.00;46.40;;;;;;5079099;28;43673;-59
2022/05/03 10:02:42;;;;;;;3.13;1.30;;;22.10;46.60;;;;;;5087143;27;43468;-59
2022/05/03 10:05:16;;;;;;;2.50;1.30;;;22.10;46.80;;;;;;5073142;28;43493;-59
2022/05/03 10:07:44;;;;;;;4.05;1.70;;;22.10;46.70;;;;;;5067227;28;44411;-60
2022/05/03 10:10:14;;;;;;;2.83;1.33;;;22.10;46.80;;;;;;5081461;27;43434;-60
2022/05/03 10:12:47;;;;;;;1.98;1.30;;;22.10;46.70;;;;;;5077282;28;43558;-60
2022/05/03 10:21:03;;;;;;;1.90;1.23;;;22.20;46.40;;;;;;5096184;27;44174;-60
2022/05/03 10:23:35;;;;;;;1.63;1.13;;;22.20;46.50;;;;;;5072334;28;43481;-59
2022/05/03 10:26:09;;;;;;;2.65;1.50;;;22.20;46.60;;;;;;5070447;28;44066;-58
2022/05/03 10:28:59;;;;;;;2.85;1.60;;;22.30;46.60;;;;;;5073963;28;44914;-59
2022/05/03 10:31:26;;;;;;;2.00;1.42;;;22.30;46.30;;;;;;5078788;27;44059;-59
2022/05/03 10:33:55;;;;;;;3.88;1.55;;;22.30;46.40;;;;;;5077218;27;43386;-59
2022/05/03 10:36:43;;;;;;;2.85;1.65;;;22.40;46.60;;;;;;5071257;28;43490;-59
2022/05/03 10:39:22;;;;;;;3.80;1.45;;;22.40;46.60;;;;;;5079491;28;44685;-60
2022/05/03 10:42:02;;;;;;;1.60;1.50;;;22.40;46.60;;;;;;5072978;28;43530;-59
2022/05/03 10:44:54;;;;;;;2.83;1.60;;;22.50;46.60;;;;;;5068036;27;43592;-59
2022/05/03 10:47:47;;;;;;;2.45;1.60;;;22.50;46.40;;;;;;5080642;28;43506;-59
2022/05/03 10:50:15;;;;;;;3.92;2.03;;;22.50;46.30;;;;;;5069160;28;44746;-59
2022/05/03 10:52:45;;;;;;;3.42;1.40;;;22.50;46.20;;;;;;5071807;28;43692;-59
2022/05/03 10:55:14;;;;;;;2.50;1.40;;;22.60;46.00;;;;;;5069943;28;43416;-59
2022/05/03 10:58:20;;;;;;;5.53;1.67;;;22.60;46.00;;;;;;5076147;28;43452;-60
2022/05/03 11:01:09;;;;;;;3.03;1.45;;;22.70;45.80;;;;;;5065321;28;44015;-60
2022/05/03 11:04:00;;;;;;;3.58;1.52;;;22.80;45.80;;;;;;5073492;28;43475;-61
2022/05/03 11:06:28;;;;;;;3.33;1.48;;;22.90;45.50;;;;;;5073730;27;43469;-60
2022/05/03 11:11:42;;;;;;;3.13;1.38;;;23.20;45.40;;;;;;5077217;27;44712;-60
2022/05/03 11:14:16;;;;;;;3.45;1.13;;;23.30;45.40;;;;;;5076399;28;44180;-60
2022/05/03 11:16:44;;;;;;;4.55;1.55;;;23.30;45.40;;;;;;5069397;28;43505;-60
2022/05/03 11:19:17;;;;;;;1.88;1.40;;;23.40;45.60;;;;;;5079676;27;43430;-60
2022/05/03 11:21:47;;;;;;;1.90;1.35;;;23.40;45.50;;;;;;5071571;27;44288;-60
2022/05/03 11:24:21;;;;;;;3.00;1.48;;;23.50;45.30;;;;;;5079411;28;43715;-60
2022/05/03 11:26:52;;;;;;;3.58;1.30;;;23.60;45.30;;;;;;5075471;28;43526;-60
2022/05/03 11:29:20;;;;;;;4.90;1.73;;;23.80;45.80;;;;;;5066224;28;43412;-59
2022/05/03 11:31:52;;;;;;;5.13;1.52;;;23.80;44.80;;;;;;5069395;28;44724;-60
2022/05/03 11:34:20;;;;;;;7.20;1.60;;;23.90;44.70;;;;;;5079107;28;43716;-60
2022/05/03 11:36:50;;;;;;;6.10;1.48;;;23.90;44.60;;;;;;5075723;28;43486;-60
2022/05/03 11:39:19;;;;;;;6.32;1.73;;;24.00;44.60;;;;;;5076277;28;43491;-59
2022/05/03 11:41:47;;;;;;;6.80;2.13;;;24.10;44.50;;;;;;5067508;28;45268;-60
2022/05/03 11:44:16;;;;;;;3.47;1.33;;;24.10;44.60;;;;;;5073368;28;43707;-60
2022/05/03 11:46:45;;;;;;;2.78;1.20;;;24.10;44.60;;;;;;5079942;27;43583;-60
2022/05/03 11:49:14;;;;;;;2.70;1.30;;;24.20;44.50;;;;;;5070400;28;43355;-58
2022/05/03 11:57:32;;;;;;;5.53;1.50;;;24.30;44.40;;;;;;5072359;27;43360;-60
2022/05/03 12:00:01;;;;;;;2.65;1.50;;;24.30;44.30;;;;;;5082044;28;43538;-60
2022/05/03 12:02:38;;;;;;;4.05;1.50;;;24.30;44.20;;;;;;5067849;28;44991;-60
2022/05/03 12:05:10;;;;;;;3.28;1.27;;;24.20;44.40;;;;;;5077315;28;43936;-60
2022/05/03 12:07:47;;;;;;;2.90;1.38;;;24.20;44.40;;;;;;5070281;28;43514;-60
2022/05/03 12:10:29;;;;;;;3.65;1.45;;;24.20;44.40;;;;;;5079283;28;43578;-61
2022/05/03 12:13:17;;;;;;;4.95;1.50;;;24.20;44.20;;;;;;5074226;27;44050;-60
2022/05/03 12:15:48;;;;;;;3.58;1.45;;;24.30;44.20;;;;;;5072302;28;43691;-59
2022/05/03 12:18:18;;;;;;;2.85;1.45;;;24.30;44.20;;;;;;5068876;28;43466;-61
2022/05/03 12:20:48;;;;;;;4.47;1.58;;;24.40;44.20;;;;;;5084185;28;43604;-60
2022/05/03 12:23:21;;;;;;;3.17;1.40;;;24.40;44.10;;;;;;5074153;28;44054;-60
2022/05/03 12:25:51;;;;;;;3.78;1.50;;;24.50;44.10;;;;;;5073738;28;43537;-61
2022/05/03 12:28:20;;;;;;;2.17;1.13;;;24.50;44.10;;;;;;5069225;28;43938;-59
2022/05/03 12:30:57;;;;;;;2.45;1.33;;;24.50;44.00;;;;;;5082418;28;43482;-60
2022/05/03 12:33:30;;;;;;;1.98;1.27;;;24.50;43.80;;;;;;5071696;28;43811;-59
2022/05/03 12:35:57;;;;;;;3.35;1.55;;;24.50;43.80;;;;;;5071094;27;43670;-60
2022/05/03 12:38:26;;;;;;;2.45;1.48;;;24.50;43.80;;;;;;5074911;28;43454;-60
2022/05/03 12:40:57;;;;;;;2.63;1.45;;;24.50;43.80;;;;;;5077144;28;43441;-60
2022/05/03 12:43:27;;;;;;;5.47;1.60;;;24.50;43.80;;;;;;5070823;28;44656;-59
2022/05/03 12:46:02;;;;;;;2.17;1.38;;;24.50;43.90;;;;;;5068630;28;43443;-60
2022/05/03 12:48:36;;;;;;;3.75;1.42;;;24.40;43.80;;;;;;5076123;27;44185;-59
2022/05/03 12:51:05;;;;;;;3.35;1.40;;;24.40;43.90;;;;;;5071338;28;43403;-59
2022/05/03 12:53:35;;;;;;;2.15;1.48;;;24.40;44.10;;;;;;5072105;27;44791;-59
2022/05/03 12:58:49;;;;;;;2.55;1.23;;;24.30;44.10;;;;;;5076530;27;43508;-60
2022/05/03 13:01:17;;;;;;;4.07;1.30;;;24.30;44.20;;;;;;5073363;28;43486;-60
2022/05/03 13:03:48;;;;;;;2.05;1.40;;;24.30;44.20;;;;;;5072820;28;45103;-59
2022/05/03 13:06:22;;;;;;;2.20;1.13;;;24.30;44.10;;;;;;5083283;28;44042;-60
2022/05/03 13:08:50;;;;;;;2.25;1.30;;;24.30;44.20;;;;;;5075214;28;43450;-60
2022/05/03 13:11:19;;;;;;;3.90;1.50;;;24.20;44.10;;;;;;5073629;27;43506;-59
2022/05/03 13:13:46;;;;;;;2.97;1.33;;;24.20;44.10;;;;;;5071156;28;43805;-60
2022/05/03 13:16:14;;;;;;;2.33;1.30;;;24.20;44.10;;;;;;5081797;28;43670;-60
2022/05/03 13:18:44;;;;;;;1.98;1.40;;;24.20;44.20;;;;;;5074040;28;43503;-61
2022/05/03 13:21:35;;;;;;;3.13;1.27;;;24.10;44.10;;;;;;5075220;28;43530;-60
2022/05/03 13:24:05;;;;;;;3.25;1.45;;;24.10;44.30;;;;;;5074584;28;43996;-61
2022/05/03 13:26:37;;;;;;;2.03;1.33;;;24.10;44.20;;;;;;5077117;28;43923;-59
2022/05/03 13:29:12;;;;;;;2.72;1.48;;;24.10;44.40;;;;;;5075876;27;43495;-61
2022/05/03 13:31:40;;;;;;;3.50;1.70;;;24.10;44.30;;;;;;5059078;28;43387;-60
2022/05/03 13:34:08;;;;;;;3.15;1.30;;;24.10;44.40;;;;;;5075484;28;44752;-60
2022/05/03 13:42:11;;;;;;;4.25;1.50;;;24.00;44.40;;;;;;5078605;28;44027;-60
2022/05/03 13:44:40;;;;;;;3.20;1.50;;;24.00;44.50;;;;;;5074106;27;44775;-60
2022/05/03 13:47:09;;;;;;;2.30;1.30;;;24.00;44.40;;;;;;5062315;28;43958;-60
2022/05/03 13:49:37;;;;;;;2.40;1.40;;;24.00;44.40;;;;;;5041640;28;43419;-60
2022/05/03 13:52:06;;;;;;;3.95;1.48;;;24.00;44.70;;;;;;5075378;28;43526;-59
2022/05/03 13:54:34;;;;;;;2.17;1.77;;;23.90;44.50;;;;;;5078002;27;43880;-59
2022/05/03 13:57:02;;;;;;;3.60;1.35;;;23.90;44.80;;;;;;5071268;28;43457;-60